Time;durP1;ratioP1;P1;durP2;ratioP2;P2;SDS_P1;SDS_P2;PMS_P1;PMS_P2;Temp;Humidity;BMP_temperature;BMP_pressure;BME280_temperature;BME280_humidity;BME280_pressure;Samples;Min_cycle;Max_cycle;Signal;HPM_P1;HPM_P2
2023/11/25 00:00:45;;;;;;;10.65;7.13;;;179.30;2252.80;;;;;;5048049;28;20079;-59
2023/11/25 00:03:12;;;;;;;11.82;7.38;;;154.50;2252.80;;;;;;5047613;28;20448;-62
2023/11/25 00:05:38;;;;;;;15.10;9.10;;;154.50;2252.80;;;;;;5048222;28;20102;-59
2023/11/25 00:08:04;;;;;;;14.57;9.40;;;154.50;2252.80;;;;;;5047721;28;20027;-60
2023/11/25 00:10:30;;;;;;;27.27;16.65;;;154.40;2252.80;;;;;;5047074;28;20493;-59
2023/11/25 00:12:56;;;;;;;28.25;21.65;;;154.50;2252.80;;;;;;5047949;28;20120;-60
2023/11/25 00:15:24;;;;;;;22.02;18.30;;;179.20;2252.80;;;;;;5047775;28;20047;-60
2023/11/25 00:17:53;;;;;;;19.98;15.13;;;179.20;2252.80;;;;;;5047745;28;20017;-60
2023/11/25 00:20:23;;;;;;;16.85;11.85;;;179.40;2252.80;;;;;;5049067;28;20032;-58
2023/11/25 00:22:49;;;;;;;11.90;9.45;;;179.30;2252.80;;;;;;5049884;28;20474;-59
2023/11/25 00:25:15;;;;;;;22.98;16.88;;;179.30;2252.80;;;;;;5049277;28;20057;-59
2023/11/25 00:27:42;;;;;;;19.40;13.25;;;179.40;2252.80;;;;;;5049145;28;20028;-60
2023/11/25 00:30:08;;;;;;;34.45;23.60;;;179.40;2252.80;;;;;;5049328;28;20040;-59
2023/11/25 00:32:37;;;;;;;25.52;19.30;;;179.40;2252.80;;;;;;5049162;28;20025;-59
2023/11/25 00:35:10;;;;;;;11.57;8.43;;;179.40;2252.80;;;;;;5048860;28;20040;-59
2023/11/25 00:37:37;;;;;;;11.05;6.57;;;179.20;2252.80;;;;;;5049260;28;20033;-59
2023/11/25 00:40:10;;;;;;;15.00;10.48;;;154.40;2252.80;;;;;;5048680;28;20029;-60
2023/11/25 00:42:39;;;;;;;10.02;6.00;;;154.40;2252.80;;;;;;5049277;28;20032;-59
2023/11/25 00:45:07;;;;;;;8.32;5.25;;;154.30;2252.80;;;;;;5048931;28;20040;-60
2023/11/25 00:47:34;;;;;;;9.80;6.28;;;154.20;2252.80;;;;;;5048964;28;20021;-59
2023/11/25 00:50:00;;;;;;;28.40;19.63;;;154.10;2252.80;;;;;;5049098;28;20036;-60
2023/11/25 00:52:27;;;;;;;15.02;9.75;;;154.10;2252.80;;;;;;5049220;28;20383;-59
2023/11/25 00:54:53;;;;;;;17.30;10.35;;;154.10;2252.80;;;;;;5030849;28;20135;-59
2023/11/25 00:57:19;;;;;;;14.45;8.38;;;154.00;2252.80;;;;;;5049309;28;20109;-59
2023/11/25 00:59:45;;;;;;;14.45;9.20;;;153.90;2252.80;;;;;;5049022;28;20570;-59
2023/11/25 01:02:10;;;;;;;15.07;8.55;;;153.90;2252.80;;;;;;5048714;28;20075;-60
2023/11/25 01:04:40;;;;;;;14.20;9.27;;;153.80;2252.80;;;;;;5049193;28;20029;-59
2023/11/25 01:07:06;;;;;;;13.85;8.75;;;153.90;2252.80;;;;;;5049069;28;20029;-59
2023/11/25 01:09:31;;;;;;;22.67;14.63;;;153.80;2252.80;;;;;;5049399;28;20037;-60
2023/11/25 01:11:57;;;;;;;16.00;9.55;;;153.90;2252.80;;;;;;5052524;28;20048;-59
2023/11/25 01:14:23;;;;;;;29.88;14.98;;;154.10;2252.80;;;;;;5052116;28;20052;-60
2023/11/25 01:16:52;;;;;;;11.82;8.50;;;154.10;2252.80;;;;;;5052609;28;20029;-60
2023/11/25 01:19:18;;;;;;;14.05;8.55;;;154.00;2252.80;;;;;;5052612;28;20155;-60
2023/11/25 01:21:43;;;;;;;23.17;17.25;;;153.90;2252.80;;;;;;5052181;28;20043;-60
2023/11/25 01:24:11;;;;;;;15.73;8.90;;;153.90;2252.80;;;;;;5052468;28;20091;-59
2023/11/25 01:26:38;;;;;;;11.77;7.88;;;153.90;2252.80;;;;;;5052452;28;20027;-59
2023/11/25 01:29:04;;;;;;;13.32;8.93;;;154.00;2252.80;;;;;;5052031;28;20541;-60
2023/11/25 01:31:31;;;;;;;14.27;9.75;;;154.10;2252.80;;;;;;5052006;28;20025;-59
2023/11/25 01:33:57;;;;;;;14.40;10.25;;;154.10;2252.80;;;;;;5052213;28;20036;-58
2023/11/25 01:36:23;;;;;;;12.95;8.90;;;154.00;2252.80;;;;;;5052335;28;20021;-60
2023/11/25 01:38:49;;;;;;;9.50;6.82;;;154.30;2252.80;;;;;;5052159;28;20479;-59
2023/11/25 01:41:15;;;;;;;12.93;7.53;;;154.10;2252.80;;;;;;5051942;28;20028;-59
2023/11/25 01:43:41;;;;;;;12.18;6.82;;;153.90;2252.80;;;;;;5051702;28;20120;-60
2023/11/25 01:46:07;;;;;;;14.40;8.38;;;154.00;2252.80;;;;;;5051863;28;20021;-59
2023/11/25 01:48:34;;;;;;;16.42;8.95;;;154.00;2252.80;;;;;;5051985;28;20053;-59
2023/11/25 01:51:04;;;;;;;12.50;8.07;;;154.00;2252.80;;;;;;5051817;28;20029;-59
2023/11/25 01:53:32;;;;;;;14.30;9.63;;;154.30;2252.80;;;;;;5051453;28;20040;-59
2023/11/25 01:55:59;;;;;;;14.27;9.40;;;154.40;2252.80;;;;;;5051923;28;20036;-59
2023/11/25 01:58:27;;;;;;;9.63;7.25;;;154.40;2252.80;;;;;;5051636;28;20028;-59
2023/11/25 02:00:53;;;;;;;14.30;9.45;;;154.20;2252.80;;;;;;5051474;28;20087;-59
2023/11/25 02:03:18;;;;;;;15.27;8.30;;;154.20;2252.80;;;;;;5051875;28;20071;-59
2023/11/25 02:05:45;;;;;;;8.60;6.00;;;154.10;2252.80;;;;;;5051495;28;20418;-59
2023/11/25 02:08:11;;;;;;;9.85;6.05;;;154.10;2252.80;;;;;;5051235;28;20537;-59
2023/11/25 02:10:39;;;;;;;9.18;5.90;;;154.50;2252.80;;;;;;5051206;28;20057;-59
2023/11/25 02:13:08;;;;;;;10.25;6.88;;;154.10;2252.80;;;;;;5051078;28;20166;-59
2023/11/25 02:15:38;;;;;;;8.40;5.40;;;153.90;2252.80;;;;;;5050979;28;20480;-59
2023/11/25 02:18:04;;;;;;;8.07;4.82;;;154.10;2252.80;;;;;;5051158;28;20146;-59
2023/11/25 02:20:40;;;;;;;7.28;4.72;;;154.00;2252.80;;;;;;5051069;28;20051;-59
2023/11/25 02:23:16;;;;;;;11.40;6.85;;;153.80;2252.80;;;;;;5051123;28;20036;-59
2023/11/25 02:25:48;;;;;;;7.82;5.18;;;153.70;2252.80;;;;;;5050856;28;20029;-59
2023/11/25 02:28:20;;;;;;;6.47;4.25;;;153.80;2252.80;;;;;;5051055;28;20025;-58
2023/11/25 02:30:47;;;;;;;9.65;6.13;;;153.80;2252.80;;;;;;5051265;28;20041;-60
2023/11/25 02:33:14;;;;;;;11.00;5.88;;;153.90;2252.80;;;;;;5050981;28;20083;-59
2023/11/25 02:35:42;;;;;;;7.13;4.78;;;153.80;2252.80;;;;;;5050989;28;20021;-60
2023/11/25 02:38:11;;;;;;;5.90;4.32;;;153.60;2252.80;;;;;;5051069;28;20021;-59
2023/11/25 02:40:48;;;;;;;6.47;3.92;;;128.90;2252.80;;;;;;5050869;28;20440;-59
2023/11/25 02:43:16;;;;;;;8.27;5.22;;;128.90;2252.80;;;;;;5050918;28;20053;-59
2023/11/25 02:45:42;;;;;;;5.00;3.38;;;153.60;2252.80;;;;;;5050614;28;20491;-59
2023/11/25 02:48:09;;;;;;;5.90;3.60;;;153.80;2252.80;;;;;;5050916;28;20036;-59
2023/11/25 02:50:35;;;;;;;7.35;4.43;;;153.70;2252.80;;;;;;5050557;28;20025;-58
2023/11/25 02:53:01;;;;;;;7.07;4.30;;;153.80;2252.80;;;;;;5050398;28;20112;-60
2023/11/25 02:55:27;;;;;;;6.47;4.03;;;153.80;2252.80;;;;;;5050764;28;20421;-59
2023/11/25 02:57:53;;;;;;;8.23;4.40;;;153.60;2252.80;;;;;;5050468;28;20016;-59
2023/11/25 03:00:28;;;;;;;5.93;4.35;;;128.90;2252.80;;;;;;5050781;28;20042;-59
2023/11/25 03:03:13;;;;;;;7.13;4.72;;;153.80;2252.80;;;;;;5050317;28;20050;-59
2023/11/25 03:05:46;;;;;;;5.95;4.00;;;128.80;2252.80;;;;;;5050447;28;20029;-59
2023/11/25 03:08:12;;;;;;;7.25;4.55;;;128.90;2252.80;;;;;;5050426;28;20036;-59
2023/11/25 03:10:41;;;;;;;9.70;4.95;;;128.90;2252.80;;;;;;5066826;28;20052;-58
2023/11/25 03:13:11;;;;;;;8.77;5.25;;;128.90;2252.80;;;;;;5070334;28;20036;-59
2023/11/25 03:15:37;;;;;;;6.20;4.55;;;128.90;2252.80;;;;;;5070262;28;20091;-59
2023/11/25 03:18:05;;;;;;;9.50;5.90;;;128.90;2252.80;;;;;;5070016;28;20017;-59
2023/11/25 03:20:33;;;;;;;8.57;6.25;;;128.90;2252.80;;;;;;5070206;28;20378;-59
2023/11/25 03:23:00;;;;;;;9.35;5.75;;;153.60;2252.80;;;;;;5070067;28;20021;-60
2023/11/25 03:25:27;;;;;;;7.78;4.93;;;153.60;2252.80;;;;;;5070034;28;20068;-58
2023/11/25 03:27:53;;;;;;;8.07;5.38;;;128.90;2252.80;;;;;;5070014;28;20487;-59
2023/11/25 03:30:20;;;;;;;8.88;5.28;;;128.80;2252.80;;;;;;5070191;28;20033;-59
2023/11/25 03:32:45;;;;;;;8.85;5.45;;;128.80;2252.80;;;;;;5069313;28;20104;-60
2023/11/25 03:35:11;;;;;;;9.75;6.65;;;128.90;2252.80;;;;;;5069511;28;20115;-61
2023/11/25 03:37:37;;;;;;;8.88;5.93;;;128.90;2252.80;;;;;;5069872;28;20462;-59
2023/11/25 03:40:07;;;;;;;10.00;6.05;;;128.90;2252.80;;;;;;5069486;28;20130;-58
2023/11/25 03:42:34;;;;;;;11.00;7.20;;;153.60;2252.80;;;;;;5069803;28;20035;-59
2023/11/25 03:45:01;;;;;;;8.85;5.95;;;153.60;2252.80;;;;;;5069446;28;20028;-60
2023/11/25 03:47:28;;;;;;;9.00;5.78;;;153.70;2252.80;;;;;;5070020;28;20421;-59
2023/11/25 03:49:54;;;;;;;12.30;8.02;;;153.60;2252.80;;;;;;5069292;28;20035;-59
2023/11/25 03:52:21;;;;;;;10.32;5.65;;;153.70;2252.80;;;;;;5069689;28;20074;-60
2023/11/25 03:54:48;;;;;;;15.05;8.50;;;153.60;2252.80;;;;;;5069658;28;20074;-59
2023/11/25 03:57:14;;;;;;;7.80;5.55;;;153.60;2252.80;;;;;;5069433;28;20028;-59
2023/11/25 03:59:40;;;;;;;11.77;8.20;;;153.70;2252.80;;;;;;5069784;28;20233;-59
2023/11/25 04:02:06;;;;;;;12.57;7.07;;;153.80;2252.80;;;;;;5069653;28;20103;-59
2023/11/25 04:04:33;;;;;;;14.25;8.27;;;153.80;2252.80;;;;;;5069468;28;20024;-59
2023/11/25 04:06:59;;;;;;;7.93;4.40;;;153.70;2252.80;;;;;;5069595;28;20063;-58
2023/11/25 04:09:25;;;;;;;8.75;4.97;;;153.70;2252.80;;;;;;5069038;28;20037;-58
2023/11/25 04:11:52;;;;;;;7.28;4.53;;;128.90;2252.80;;;;;;5069436;28;20051;-60
2023/11/25 04:14:18;;;;;;;4.43;3.00;;;128.90;2252.80;;;;;;5069393;28;20120;-59
2023/11/25 04:16:46;;;;;;;6.10;3.55;;;128.80;2252.80;;;;;;5069562;28;20063;-59
2023/11/25 04:19:11;;;;;;;5.35;3.03;;;128.70;2252.80;;;;;;5069305;28;20038;-60
2023/11/25 04:21:45;;;;;;;7.60;3.70;;;128.70;2252.80;;;;;;5069397;28;20103;-59
2023/11/25 04:24:11;;;;;;;4.70;2.95;;;128.70;2252.80;;;;;;5069009;28;20032;-59
2023/11/25 04:26:40;;;;;;;5.45;3.53;;;128.70;2252.80;;;;;;5069359;28;20070;-58
2023/11/25 04:29:06;;;;;;;5.78;3.45;;;128.80;2252.80;;;;;;5069446;28;20559;-59
2023/11/25 04:31:32;;;;;;;4.80;2.90;;;128.90;2252.80;;;;;;5069103;28;20031;-59
2023/11/25 04:33:58;;;;;;;4.88;3.22;;;128.60;2252.80;;;;;;5069152;28;20028;-59
2023/11/25 04:36:28;;;;;;;4.68;2.63;;;128.50;2252.80;;;;;;5069120;28;20653;-59
2023/11/25 04:38:56;;;;;;;4.05;2.67;;;128.20;2252.80;;;;;;5068898;28;20033;-59
2023/11/25 04:41:22;;;;;;;4.78;2.70;;;128.30;2252.80;;;;;;5069068;28;20445;-59
2023/11/25 04:43:50;;;;;;;4.75;2.83;;;128.20;2252.80;;;;;;5069216;28;20530;-59
2023/11/25 04:46:15;;;;;;;4.40;2.78;;;128.30;2252.80;;;;;;5072980;28;20032;-59
2023/11/25 04:48:41;;;;;;;6.07;3.30;;;128.40;2252.80;;;;;;5072906;28;20070;-60
2023/11/25 04:51:07;;;;;;;4.80;2.85;;;128.30;2252.80;;;;;;5073128;28;20032;-59
2023/11/25 04:53:33;;;;;;;6.38;3.47;;;128.30;2252.80;;;;;;5072894;28;20417;-59
2023/11/25 04:55:59;;;;;;;5.28;2.95;;;128.40;2252.80;;;;;;5072911;28;20455;-58
2023/11/25 04:58:25;;;;;;;6.07;3.47;;;128.30;2252.80;;;;;;5072981;28;20031;-59
2023/11/25 05:00:51;;;;;;;5.30;3.40;;;128.20;2252.80;;;;;;5072955;28;20024;-59
2023/11/25 05:03:17;;;;;;;4.85;2.80;;;128.30;2252.80;;;;;;5072915;28;20038;-59
2023/11/25 05:05:43;;;;;;;5.38;3.42;;;128.40;2252.80;;;;;;5056008;28;20361;-58
2023/11/25 05:08:08;;;;;;;6.05;4.03;;;128.50;2252.80;;;;;;5052691;28;20529;-59
2023/11/25 05:10:34;;;;;;;5.53;3.00;;;128.50;2252.80;;;;;;5052305;28;20526;-59
2023/11/25 05:13:00;;;;;;;5.80;3.13;;;128.50;2252.80;;;;;;5052250;28;20124;-60
2023/11/25 05:15:26;;;;;;;5.68;3.40;;;128.50;2252.80;;;;;;5052658;28;20040;-59
2023/11/25 05:17:54;;;;;;;4.00;2.58;;;128.50;2252.80;;;;;;5052536;28;20151;-59
2023/11/25 05:20:21;;;;;;;6.38;4.13;;;128.30;2252.80;;;;;;5052460;28;20025;-58
2023/11/25 05:22:47;;;;;;;7.05;4.32;;;128.10;2252.80;;;;;;5052525;28;20447;-58
2023/11/25 05:25:15;;;;;;;6.00;3.75;;;128.20;2252.80;;;;;;5052209;28;20099;-58
2023/11/25 05:27:42;;;;;;;4.53;3.05;;;128.20;2252.80;;;;;;5052292;28;20025;-60
2023/11/25 05:30:13;;;;;;;4.03;3.15;;;128.30;2252.80;;;;;;5052401;28;20471;-60
2023/11/25 05:32:42;;;;;;;7.85;3.80;;;128.20;2252.80;;;;;;5052365;28;20021;-59
2023/11/25 05:35:09;;;;;;;5.47;3.33;;;128.00;2252.80;;;;;;5051996;28;20422;-58
2023/11/25 05:37:34;;;;;;;5.38;3.05;;;128.00;2252.80;;;;;;5051413;28;20028;-58
2023/11/25 05:40:00;;;;;;;5.25;3.42;;;128.00;2252.80;;;;;;5049939;28;20033;-60
2023/11/25 05:42:29;;;;;;;5.78;3.53;;;128.10;2252.80;;;;;;5050608;28;20095;-60
2023/11/25 05:44:55;;;;;;;5.40;3.42;;;128.00;2252.80;;;;;;5050523;28;20033;-59
2023/11/25 05:47:21;;;;;;;5.82;3.20;;;103.30;2227.20;;;;;;5050551;28;20029;-59
2023/11/25 05:49:48;;;;;;;5.97;3.95;;;128.10;2252.80;;;;;;5050492;28;20096;-59
2023/11/25 05:52:14;;;;;;;4.90;3.28;;;128.20;2252.80;;;;;;5049852;28;20025;-59
2023/11/25 05:54:41;;;;;;;6.85;2.90;;;128.20;2252.80;;;;;;5050015;28;20036;-59
2023/11/25 05:57:07;;;;;;;5.47;3.38;;;128.10;2252.80;;;;;;5049499;28;20032;-60
2023/11/25 05:59:33;;;;;;;5.18;3.30;;;103.30;2227.20;;;;;;5050118;28;20391;-58
2023/11/25 06:01:59;;;;;;;8.40;3.80;;;103.20;2227.20;;;;;;5050255;28;20062;-59
2023/11/25 06:04:24;;;;;;;5.10;3.65;;;103.20;2227.20;;;;;;5049452;28;20167;-59
2023/11/25 06:06:50;;;;;;;4.63;3.30;;;103.10;2227.20;;;;;;5050105;28;20032;-60
2023/11/25 06:09:16;;;;;;;6.70;3.55;;;103.30;2227.20;;;;;;5049793;28;20526;-59
2023/11/25 06:11:41;;;;;;;7.03;4.55;;;103.30;2227.20;;;;;;5049730;28;20053;-59
2023/11/25 06:14:10;;;;;;;8.75;5.20;;;103.20;2227.20;;;;;;5049934;28;20052;-60
2023/11/25 06:16:35;;;;;;;11.02;5.82;;;103.20;2227.20;;;;;;5050100;28;20526;-59
2023/11/25 06:19:01;;;;;;;9.32;6.22;;;103.20;2227.20;;;;;;5049205;28;20056;-59
2023/11/25 06:21:27;;;;;;;8.48;4.97;;;103.20;2227.20;;;;;;5050038;28;20166;-59
2023/11/25 06:23:53;;;;;;;30.52;22.75;;;128.00;2252.80;;;;;;5049371;28;20029;-60
2023/11/25 06:26:19;;;;;;;10.38;7.03;;;103.30;2227.20;;;;;;5049497;28;20025;-58
2023/11/25 06:28:47;;;;;;;14.60;6.22;;;103.30;2227.20;;;;;;5049683;28;20554;-59
2023/11/25 06:31:14;;;;;;;7.43;6.07;;;128.00;2252.80;;;;;;5049170;28;20040;-58
2023/11/25 06:33:41;;;;;;;6.57;4.70;;;128.00;2252.80;;;;;;5049472;28;20037;-60
2023/11/25 06:36:10;;;;;;;244.45;140.52;;;103.30;2227.20;;;;;;5049429;28;20040;-59
2023/11/25 06:38:36;;;;;;;458.98;301.15;;;128.10;2252.80;;;;;;5049687;28;20040;-60
2023/11/25 06:41:02;;;;;;;103.18;75.00;;;103.30;2227.20;;;;;;5049121;28;20025;-59
2023/11/25 06:43:28;;;;;;;29.00;20.40;;;128.00;2252.80;;;;;;5049136;28;20124;-59
2023/11/25 06:45:54;;;;;;;56.53;43.47;;;128.00;2252.80;;;;;;5049246;28;20031;-59
2023/11/25 06:48:23;;;;;;;70.03;43.47;;;128.00;2252.80;;;;;;5049573;28;20614;-59
2023/11/25 06:50:50;;;;;;;459.25;300.58;;;128.10;2252.80;;;;;;5049193;28;20025;-59
2023/11/25 06:53:15;;;;;;;45.97;33.60;;;128.10;2252.80;;;;;;5049251;28;20033;-59
2023/11/25 06:55:41;;;;;;;75.13;53.72;;;128.30;2252.80;;;;;;5048959;28;20039;-59
2023/11/25 06:58:13;;;;;;;55.38;41.92;;;128.30;2252.80;;;;;;5048468;28;20029;-59
2023/11/25 07:00:39;;;;;;;54.45;38.97;;;128.30;2252.80;;;;;;5049155;28;20032;-59
2023/11/25 07:03:05;;;;;;;26.65;18.85;;;128.30;2252.80;;;;;;5049002;28;20028;-60
2023/11/25 07:05:31;;;;;;;30.75;24.80;;;128.40;2252.80;;;;;;5048744;28;20171;-59
2023/11/25 07:07:57;;;;;;;45.78;33.00;;;128.50;2252.80;;;;;;5048799;28;20060;-59
2023/11/25 07:10:23;;;;;;;36.28;27.77;;;128.40;2252.80;;;;;;5047903;28;20052;-59
2023/11/25 07:12:49;;;;;;;53.30;38.95;;;128.40;2252.80;;;;;;5048912;28;20036;-59
2023/11/25 07:15:15;;;;;;;9.07;5.57;;;128.50;2252.80;;;;;;5048378;28;20036;-59
2023/11/25 07:17:41;;;;;;;10.43;7.38;;;128.40;2252.80;;;;;;5048546;28;20028;-60
2023/11/25 07:20:11;;;;;;;13.88;11.68;;;128.50;2252.80;;;;;;5051209;28;20118;-59
2023/11/25 07:22:38;;;;;;;7.80;4.80;;;128.50;2252.80;;;;;;5048154;28;20036;-58
2023/11/25 07:25:05;;;;;;;16.90;12.75;;;128.50;2252.80;;;;;;5047751;28;20032;-59
2023/11/25 07:27:32;;;;;;;38.15;26.67;;;128.60;2252.80;;;;;;5048391;28;20047;-60
2023/11/25 07:30:00;;;;;;;10.85;8.90;;;128.70;2252.80;;;;;;5048449;28;20033;-57
2023/11/25 07:32:27;;;;;;;8.85;7.47;;;128.70;2252.80;;;;;;5048635;28;20040;-59
2023/11/25 07:34:52;;;;;;;8.65;5.82;;;128.80;2252.80;;;;;;5047917;28;20044;-57
2023/11/25 07:37:18;;;;;;;10.10;6.68;;;128.90;2252.80;;;;;;5048083;28;20029;-58
2023/11/25 07:39:44;;;;;;;5.82;3.83;;;128.90;2252.80;;;;;;5048066;28;20383;-59
2023/11/25 07:42:10;;;;;;;8.10;5.43;;;128.80;2252.80;;;;;;5048462;28;20029;-58
2023/11/25 07:44:36;;;;;;;20.38;13.30;;;128.90;2252.80;;;;;;5048286;28;20032;-59
2023/11/25 07:47:02;;;;;;;6.05;3.78;;;128.80;2252.80;;;;;;5048563;28;20056;-60
2023/11/25 07:49:31;;;;;;;8.80;4.53;;;128.70;2252.80;;;;;;5047314;28;20033;-59
2023/11/25 07:51:57;;;;;;;68.50;37.15;;;128.60;2252.80;;;;;;5050251;28;20021;-59
2023/11/25 07:54:26;;;;;;;42.03;28.08;;;128.80;2252.80;;;;;;5049516;28;20040;-59
2023/11/25 07:56:52;;;;;;;131.95;83.72;;;128.70;2252.80;;;;;;5049548;28;20099;-59
2023/11/25 07:59:18;;;;;;;17.10;12.10;;;128.70;2252.80;;;;;;5049648;28;20452;-58
2023/11/25 08:01:45;;;;;;;18.40;16.63;;;128.70;2252.80;;;;;;5049433;28;20021;-59
2023/11/25 08:04:11;;;;;;;13.05;5.78;;;128.60;2252.80;;;;;;5049158;28;20108;-60
2023/11/25 08:06:37;;;;;;;14.98;9.25;;;128.50;2252.80;;;;;;5049505;28;20096;-59
2023/11/25 08:09:02;;;;;;;19.15;10.40;;;128.60;2252.80;;;;;;5049048;28;20070;-59
2023/11/25 08:11:29;;;;;;;10.23;5.72;;;128.70;2252.80;;;;;;5049324;28;20053;-59
2023/11/25 08:13:55;;;;;;;7.63;4.10;;;128.50;2252.80;;;;;;5049090;28;20048;-59
2023/11/25 08:16:21;;;;;;;12.02;7.47;;;128.60;2252.80;;;;;;5049199;28;20025;-59
2023/11/25 08:18:47;;;;;;;48.92;36.90;;;128.60;2252.80;;;;;;5049035;28;20032;-59
2023/11/25 08:21:14;;;;;;;7.05;4.38;;;128.80;2252.80;;;;;;5049244;28;20074;-59
2023/11/25 08:23:43;;;;;;;8.48;4.40;;;128.60;2252.80;;;;;;5049217;28;20028;-59
2023/11/25 08:26:22;;;;;;;7.78;4.82;;;128.40;2252.80;;;;;;5049298;28;20468;-59
2023/11/25 08:28:49;;;;;;;21.23;13.40;;;128.50;2252.80;;;;;;5049304;28;20538;-60
2023/11/25 08:31:16;;;;;;;9.55;6.28;;;128.60;2252.80;;;;;;5049352;28;20056;-59
2023/11/25 08:33:42;;;;;;;15.15;10.70;;;128.50;2252.80;;;;;;5048793;28;20043;-59
2023/11/25 08:36:10;;;;;;;9.10;4.88;;;128.60;2252.80;;;;;;5049245;28;20107;-59
2023/11/25 08:38:37;;;;;;;8.52;5.38;;;128.80;2252.80;;;;;;5049164;28;20029;-58
2023/11/25 08:41:06;;;;;;;8.57;4.22;;;128.70;2252.80;;;;;;5048732;28;20029;-60
2023/11/25 08:43:39;;;;;;;15.30;9.32;;;128.70;2252.80;;;;;;5048927;28;20369;-59
2023/11/25 08:46:05;;;;;;;13.38;7.40;;;128.70;2252.80;;;;;;5049193;28;20472;-59
2023/11/25 08:48:31;;;;;;;8.13;6.20;;;128.90;2252.80;;;;;;5049071;28;20115;-58
2023/11/25 08:50:57;;;;;;;21.48;13.20;;;128.90;2252.80;;;;;;5049834;28;20443;-59
2023/11/25 08:53:24;;;;;;;17.13;10.15;;;128.90;2252.80;;;;;;5049003;28;20044;-59
2023/11/25 08:55:50;;;;;;;11.50;7.30;;;128.90;2252.80;;;;;;5053121;28;20360;-59
2023/11/25 08:58:16;;;;;;;11.55;8.18;;;153.70;2252.80;;;;;;5068929;28;20050;-58
2023/11/25 09:00:43;;;;;;;12.00;8.80;;;153.70;2252.80;;;;;;5068828;28;20028;-60
2023/11/25 09:03:10;;;;;;;14.15;9.35;;;153.80;2252.80;;;;;;5067124;28;20037;-59
2023/11/25 09:05:40;;;;;;;16.80;12.80;;;153.80;2252.80;;;;;;5048988;28;20037;-61
2023/11/25 09:08:08;;;;;;;6.80;4.28;;;153.70;2252.80;;;;;;5049157;28;20029;-61
2023/11/25 09:10:35;;;;;;;7.85;5.20;;;153.80;2252.80;;;;;;5048650;28;20045;-63
2023/11/25 09:13:02;;;;;;;16.20;13.50;;;153.80;2252.80;;;;;;5048708;28;20037;-62
2023/11/25 09:15:28;;;;;;;7.63;5.43;;;153.90;2252.80;;;;;;5048734;28;20448;-64
2023/11/25 09:17:53;;;;;;;12.55;9.02;;;154.10;2252.80;;;;;;5048531;28;20061;-62
2023/11/25 09:20:21;;;;;;;7.78;5.90;;;154.00;2252.80;;;;;;5048881;28;20021;-62
2023/11/25 09:22:47;;;;;;;5.70;3.90;;;154.10;2252.80;;;;;;5049067;28;20533;-62
2023/11/25 09:25:14;;;;;;;10.93;8.00;;;154.10;2252.80;;;;;;5048552;28;20055;-62
2023/11/25 09:27:46;;;;;;;8.30;5.03;;;154.10;2252.80;;;;;;5048848;28;20044;-62
2023/11/25 09:30:14;;;;;;;11.38;6.18;;;154.20;2252.80;;;;;;5048527;28;20371;-62
2023/11/25 09:32:44;;;;;;;11.63;8.18;;;154.00;2252.80;;;;;;5051436;28;20025;-62
2023/11/25 09:35:11;;;;;;;10.27;7.43;;;154.00;2252.80;;;;;;5052336;28;20119;-62
2023/11/25 09:37:39;;;;;;;10.98;7.63;;;153.90;2252.80;;;;;;5052407;28;20021;-62
2023/11/25 09:40:07;;;;;;;10.10;7.68;;;154.00;2252.80;;;;;;5052092;28;20028;-62
2023/11/25 09:42:33;;;;;;;14.50;9.63;;;154.10;2252.80;;;;;;5051963;28;20021;-62
2023/11/25 09:45:03;;;;;;;9.73;8.30;;;153.90;2252.80;;;;;;5051944;28;20044;-63
2023/11/25 09:47:29;;;;;;;7.47;4.55;;;154.10;2252.80;;;;;;5052060;28;20040;-62
2023/11/25 09:49:55;;;;;;;17.27;10.35;;;154.00;2252.80;;;;;;5051680;28;20029;-63
2023/11/25 09:52:23;;;;;;;36.90;24.50;;;154.00;2252.80;;;;;;5061464;28;20025;-62
2023/11/25 09:54:54;;;;;;;10.27;6.85;;;154.00;2252.80;;;;;;5057107;28;20091;-62
2023/11/25 09:57:22;;;;;;;9.13;5.88;;;154.00;2252.80;;;;;;5058976;28;20096;-62
2023/11/25 09:59:49;;;;;;;39.47;29.92;;;153.80;2252.80;;;;;;5067291;28;20048;-62
2023/11/25 10:02:16;;;;;;;95.80;64.93;;;154.00;2252.80;;;;;;5056923;28;20029;-64
2023/11/25 10:04:43;;;;;;;78.20;40.10;;;154.20;2252.80;;;;;;5051516;28;20044;-64
2023/11/25 10:07:12;;;;;;;10.27;6.55;;;154.20;2252.80;;;;;;5051723;28;20432;-62
2023/11/25 10:09:39;;;;;;;11.63;5.97;;;154.10;2252.80;;;;;;5051413;28;20033;-62
2023/11/25 10:12:11;;;;;;;79.68;50.17;;;154.10;2252.80;;;;;;5051279;28;20101;-62
2023/11/25 10:14:42;;;;;;;41.13;29.90;;;154.30;2252.80;;;;;;5051440;28;20072;-62
2023/11/25 10:17:19;;;;;;;22.00;13.75;;;154.00;2252.80;;;;;;5051628;28;20021;-63
2023/11/25 10:19:48;;;;;;;20.15;13.38;;;154.00;2252.80;;;;;;5051155;28;20079;-62
2023/11/25 10:22:17;;;;;;;13.65;7.10;;;154.00;2252.80;;;;;;5051533;28;20028;-64
2023/11/25 10:24:49;;;;;;;8.73;4.40;;;154.20;2252.80;;;;;;5057600;28;20419;-62
2023/11/25 10:27:19;;;;;;;8.20;4.22;;;154.10;2252.80;;;;;;5061806;28;20021;-62
2023/11/25 10:29:47;;;;;;;6.20;4.75;;;154.30;2252.80;;;;;;5058967;28;20149;-62
2023/11/25 10:32:12;;;;;;;8.02;5.00;;;154.10;2252.80;;;;;;5061534;28;20066;-61
2023/11/25 10:34:38;;;;;;;8.20;5.10;;;154.30;2252.80;;;;;;5060322;28;20029;-62
2023/11/25 10:37:04;;;;;;;7.90;5.18;;;154.30;2252.80;;;;;;5059825;28;20013;-62
2023/11/25 10:39:34;;;;;;;9.05;5.32;;;154.30;2252.80;;;;;;5060934;28;20027;-62
2023/11/25 10:42:07;;;;;;;9.70;5.05;;;154.30;2252.80;;;;;;5059804;28;20125;-62
2023/11/25 10:44:36;;;;;;;8.17;5.30;;;154.20;2252.80;;;;;;5061181;28;20020;-62
2023/11/25 10:47:04;;;;;;;7.85;4.63;;;154.30;2252.80;;;;;;5060399;28;20020;-59
2023/11/25 10:49:36;;;;;;;9.73;5.00;;;154.40;2252.80;;;;;;5059226;28;20017;-62
2023/11/25 10:52:06;;;;;;;19.13;13.80;;;154.50;2252.80;;;;;;5059840;28;20013;-62
2023/11/25 10:54:34;;;;;;;9.45;6.13;;;154.50;2252.80;;;;;;5060709;28;20036;-62
2023/11/25 10:57:05;;;;;;;8.80;4.47;;;154.30;2252.80;;;;;;5060109;28;20013;-64
2023/11/25 10:59:34;;;;;;;10.70;6.72;;;154.30;2252.80;;;;;;5058573;28;20048;-61
2023/11/25 11:02:05;;;;;;;7.78;4.75;;;154.30;2252.80;;;;;;5050627;28;20483;-63
2023/11/25 11:04:48;;;;;;;12.43;7.18;;;154.30;2252.80;;;;;;5050312;28;20029;-61
2023/11/25 11:07:16;;;;;;;14.60;8.70;;;154.30;2252.80;;;;;;5052808;28;20056;-64
2023/11/25 11:09:49;;;;;;;10.70;6.60;;;154.30;2252.80;;;;;;5061484;28;20025;-63
2023/11/25 11:12:38;;;;;;;11.93;7.18;;;154.40;2252.80;;;;;;5061316;28;20091;-62
2023/11/25 11:15:07;;;;;;;11.38;7.18;;;154.20;2252.80;;;;;;5069000;28;20028;-65
2023/11/25 11:17:57;;;;;;;9.57;4.95;;;154.40;2252.80;;;;;;5050000;28;20052;-63
2023/11/25 11:20:28;;;;;;;6.20;4.18;;;154.30;2252.80;;;;;;5050069;28;20017;-64
2023/11/25 11:22:56;;;;;;;7.15;4.15;;;154.30;2252.80;;;;;;5032236;28;20057;-63
2023/11/25 11:25:30;;;;;;;7.43;4.80;;;154.40;2252.80;;;;;;5049799;28;20025;-65
2023/11/25 11:28:22;;;;;;;14.15;9.70;;;154.50;2252.80;;;;;;5050112;28;20064;-64
2023/11/25 11:31:07;;;;;;;38.97;19.95;;;154.50;2252.80;;;;;;5050364;28;20013;-63
2023/11/25 11:33:32;;;;;;;32.20;19.98;;;154.50;2252.80;;;;;;5049570;28;20529;-63
2023/11/25 11:35:58;;;;;;;33.70;21.63;;;154.50;2252.80;;;;;;5049889;28;20029;-63
2023/11/25 11:38:28;;;;;;;17.63;10.40;;;154.50;2252.80;;;;;;5051072;28;20028;-62
2023/11/25 11:41:00;;;;;;;7.32;5.25;;;179.20;2252.80;;;;;;5058064;28;20598;-65
2023/11/25 11:43:29;;;;;;;7.85;4.82;;;179.20;2252.80;;;;;;5058994;28;20060;-65
2023/11/25 11:45:55;;;;;;;10.60;5.13;;;154.50;2252.80;;;;;;5060111;28;20104;-65
2023/11/25 11:48:25;;;;;;;14.35;12.98;;;154.50;2252.80;;;;;;5058941;28;20024;-64
2023/11/25 11:50:54;;;;;;;6.20;3.80;;;154.40;2252.80;;;;;;5058544;28;20037;-63
2023/11/25 11:53:21;;;;;;;8.43;3.88;;;154.50;2252.80;;;;;;5059833;28;20020;-62
2023/11/25 11:55:57;;;;;;;8.48;6.72;;;154.40;2252.80;;;;;;5059178;28;20090;-63
2023/11/25 11:58:28;;;;;;;142.93;82.32;;;154.50;2252.80;;;;;;5059121;28;20036;-64
2023/11/25 12:01:05;;;;;;;13.30;8.10;;;179.30;2252.80;;;;;;5057920;28;20074;-64
2023/11/25 12:03:32;;;;;;;19.02;6.93;;;179.40;2252.80;;;;;;5057786;28;20028;-63
2023/11/25 12:05:58;;;;;;;24.23;12.27;;;179.20;2252.80;;;;;;5059853;28;20035;-67
2023/11/25 12:08:25;;;;;;;13.75;5.88;;;179.30;2252.80;;;;;;5059031;28;20025;-63
2023/11/25 12:10:51;;;;;;;9.73;6.28;;;179.20;2252.80;;;;;;5049721;28;20534;-64
2023/11/25 12:13:38;;;;;;;13.20;6.63;;;154.50;2252.80;;;;;;5054261;28;20033;-64